Time;durP1;ratioP1;P1;durP2;ratioP2;P2;SDS_P1;SDS_P2;PMS_P1;PMS_P2;Temp;Humidity;BMP_temperature;BMP_pressure;BME280_temperature;BME280_humidity;BME280_pressure;Samples;Min_cycle;Max_cycle;Signal;HPM_P1;HPM_P2
2023/05/23 00:00:57;;;;;;;;;;;;;;;13.53;95.65;99137.43;109577;1251;72667;-64
2023/05/23 00:03:24;;;;;;;;;;;;;;;13.51;96.13;99140.33;109508;1257;60176;-64
2023/05/23 00:05:51;;;;;;;;;;;;;;;13.49;96.58;99137.23;109537;1253;58955;-64
2023/05/23 00:08:19;;;;;;;;;;;;;;;13.45;98.44;99136.39;109555;1253;73470;-64
2023/05/23 00:10:46;;;;;;;;;;;;;;;13.41;99.54;99136.61;109533;1251;67613;-64
2023/05/23 00:13:13;;;;;;;;;;;;;;;13.35;99.83;99136.45;109522;1251;72741;-63
2023/05/23 00:15:41;;;;;;;;;;;;;;;13.32;99.48;99142.30;109563;1254;60078;-63
2023/05/23 00:18:10;;;;;;;;;;;;;;;13.30;98.98;99137.88;109560;1253;59927;-63
2023/05/23 00:20:41;;;;;;;;;;;;;;;13.32;99.05;99140.25;109559;1253;74710;-63
2023/05/23 00:23:09;;;;;;;;;;;;;;;13.34;99.76;99137.73;109550;1252;66340;-63
2023/05/23 00:25:36;;;;;;;;;;;;;;;13.35;99.71;99138.09;109499;1257;72753;-64
2023/05/23 00:28:05;;;;;;;;;;;;;;;13.36;99.74;99134.44;109628;1254;58939;-64
2023/05/23 00:30:32;;;;;;;;;;;;;;;13.36;99.72;99136.54;109547;1252;58901;-64
2023/05/23 00:33:00;;;;;;;;;;;;;;;13.39;99.95;99134.95;109604;1251;74706;-65
2023/05/23 00:35:27;;;;;;;;;;;;;;;13.41;99.95;99134.71;109605;1251;67938;-65
2023/05/23 00:37:55;;;;;;;;;;;;;;;13.42;100.00;99134.52;109528;1252;72681;-64
2023/05/23 00:40:22;;;;;;;;;;;;;;;13.43;100.00;99134.39;109516;1253;58931;-65
2023/05/23 00:42:49;;;;;;;;;;;;;;;13.44;100.00;99131.11;109547;1253;59956;-65
2023/05/23 00:45:17;;;;;;;;;;;;;;;13.44;100.00;99130.52;109433;1253;72974;-64
2023/05/23 00:47:44;;;;;;;;;;;;;;;13.43;100.00;99132.75;109580;1251;68179;-65
2023/05/23 00:50:13;;;;;;;;;;;;;;;13.43;100.00;99129.23;109557;1254;75332;-65
2023/05/23 00:52:44;;;;;;;;;;;;;;;13.43;100.00;99126.63;109596;1253;60005;-64
2023/05/23 00:55:12;;;;;;;;;;;;;;;13.40;100.00;99122.63;109622;1253;58893;-64
2023/05/23 00:57:39;;;;;;;;;;;;;;;13.39;100.00;99120.36;109485;1253;74671;-67
2023/05/23 01:00:09;;;;;;;;;;;;;;;13.37;100.00;99123.73;109582;1251;66431;-65
2023/05/23 01:02:43;;;;;;;;;;;;;;;13.37;100.00;99124.71;109582;1252;73285;-64
2023/05/23 01:05:13;;;;;;;;;;;;;;;13.35;100.00;99126.13;109644;1253;60037;-64
2023/05/23 01:07:40;;;;;;;;;;;;;;;13.36;100.00;99126.59;109511;1252;58828;-64
2023/05/23 01:10:08;;;;;;;;;;;;;;;13.37;100.00;99124.14;109507;1252;151166;-64
2023/05/23 01:12:36;;;;;;;;;;;;;;;13.39;100.00;99125.27;109332;1253;67812;-64
2023/05/23 01:15:05;;;;;;;;;;;;;;;13.41;100.00;99128.30;109485;1253;73141;-64
2023/05/23 01:17:32;;;;;;;;;;;;;;;13.40;100.00;99126.61;109438;1257;60128;-65
2023/05/23 01:20:06;;;;;;;;;;;;;;;13.38;100.00;99129.35;109601;1251;59795;-64
2023/05/23 01:22:40;;;;;;;;;;;;;;;13.34;100.00;99125.99;109459;1253;73359;-64
2023/05/23 01:25:08;;;;;;;;;;;;;;;13.31;100.00;99129.21;109481;1252;67217;-65
2023/05/23 01:27:41;;;;;;;;;;;;;;;13.28;100.00;99133.52;109508;1251;73127;-64
2023/05/23 01:30:09;;;;;;;;;;;;;;;13.25;100.00;99125.81;109543;1254;60054;-64
2023/05/23 01:32:36;;;;;;;;;;;;;;;13.25;100.00;99133.92;109462;1251;59084;-64
2023/05/23 01:35:03;;;;;;;;;;;;;;;13.24;100.00;99135.27;109579;1252;74631;-64
2023/05/23 01:37:31;;;;;;;;;;;;;;;13.24;100.00;99132.94;109557;1251;67927;-65
2023/05/23 01:39:58;;;;;;;;;;;;;;;13.25;100.00;99134.45;109582;1251;72664;-63
2023/05/23 01:42:27;;;;;;;;;;;;;;;13.25;100.00;99134.77;109513;1251;58919;-65
2023/05/23 01:44:58;;;;;;;;;;;;;;;13.26;100.00;99130.80;109588;1253;59778;-65
2023/05/23 01:47:25;;;;;;;;;;;;;;;13.25;100.00;99126.11;109557;1254;73892;-64
2023/05/23 01:49:52;;;;;;;;;;;;;;;13.24;100.00;99127.27;109329;1252;66919;-65
2023/05/23 01:52:20;;;;;;;;;;;;;;;13.21;100.00;99127.28;109581;1253;72702;-65
2023/05/23 01:54:48;;;;;;;;;;;;;;;13.19;100.00;99121.52;109613;1253;59004;-64
2023/05/23 01:57:15;;;;;;;;;;;;;;;13.17;100.00;99116.94;109554;1254;59045;-65
2023/05/23 01:59:42;;;;;;;;;;;;;;;13.16;100.00;99112.94;109563;1253;73433;-65
2023/05/23 02:02:10;;;;;;;;;;;;;;;13.16;100.00;99113.39;109322;1252;67701;-64
2023/05/23 02:04:37;;;;;;;;;;;;;;;13.15;100.00;99110.09;109464;1254;72626;-65
2023/05/23 02:07:05;;;;;;;;;;;;;;;13.14;100.00;99112.85;109325;1254;58948;-65
2023/05/23 02:09:32;;;;;;;;;;;;;;;13.13;100.00;99111.24;109560;1253;59819;-65
2023/05/23 02:11:59;;;;;;;;;;;;;;;13.12;100.00;99116.27;109431;1251;73739;-65
2023/05/23 02:14:27;;;;;;;;;;;;;;;13.13;100.00;99119.65;109515;1251;67921;-64
2023/05/23 02:16:54;;;;;;;;;;;;;;;13.13;100.00;99117.67;109540;1252;71435;-63
2023/05/23 02:19:22;;;;;;;;;;;;;;;13.12;100.00;99114.75;109477;1253;58923;-65
2023/05/23 02:21:49;;;;;;;;;;;;;;;13.11;100.00;99111.64;109571;1252;58906;-64
2023/05/23 02:24:17;;;;;;;;;;;;;;;13.11;100.00;99109.51;109558;1252;75122;-64
2023/05/23 02:26:44;;;;;;;;;;;;;;;13.11;100.00;99107.28;109542;1251;67924;-65
2023/05/23 02:29:12;;;;;;;;;;;;;;;13.09;100.00;99105.33;109571;1253;71150;-64
2023/05/23 02:31:39;;;;;;;;;;;;;;;13.10;100.00;99101.02;109575;1254;60099;-65
2023/05/23 02:34:06;;;;;;;;;;;;;;;13.11;100.00;99092.36;109367;1252;59781;-64
2023/05/23 02:36:35;;;;;;;;;;;;;;;13.13;100.00;99093.48;109446;1252;73387;-65
2023/05/23 02:39:04;;;;;;;;;;;;;;;13.14;100.00;99094.14;109383;1251;67520;-64
2023/05/23 02:41:31;;;;;;;;;;;;;;;13.17;100.00;99091.30;109352;1251;72123;-64
2023/05/23 02:43:59;;;;;;;;;;;;;;;13.20;100.00;99090.52;109556;1252;58907;-65
2023/05/23 02:46:26;;;;;;;;;;;;;;;13.23;100.00;99090.67;109400;1252;59789;-65
2023/05/23 02:48:54;;;;;;;;;;;;;;;13.28;100.00;99088.31;109563;1254;73385;-65
2023/05/23 02:51:21;;;;;;;;;;;;;;;13.32;100.00;99090.77;109510;1251;68152;-65
2023/05/23 02:53:48;;;;;;;;;;;;;;;13.35;100.00;99091.92;109404;1251;71547;-64
2023/05/23 02:56:17;;;;;;;;;;;;;;;13.38;100.00;99094.09;109473;1252;59073;-64
2023/05/23 02:58:45;;;;;;;;;;;;;;;13.44;100.00;99094.04;109551;1253;59788;-64
2023/05/23 03:01:12;;;;;;;;;;;;;;;13.51;100.00;99092.42;109425;1254;73444;-65
2023/05/23 03:03:40;;;;;;;;;;;;;;;13.57;100.00;99097.60;109548;1251;67653;-65
2023/05/23 03:06:13;;;;;;;;;;;;;;;13.67;100.00;99095.67;109375;1252;72721;-64
2023/05/23 03:08:40;;;;;;;;;;;;;;;13.77;100.00;99091.65;109491;1251;60031;-65
2023/05/23 03:11:08;;;;;;;;;;;;;;;13.90;100.00;99093.48;109565;1251;59971;-65
2023/05/23 03:13:35;;;;;;;;;;;;;;;14.04;100.00;99091.27;109571;1251;73412;-66
2023/05/23 03:16:02;;;;;;;;;;;;;;;14.18;100.00;99093.09;109604;1251;67525;-64
2023/05/23 03:18:30;;;;;;;;;;;;;;;14.35;100.00;99092.00;109585;1253;72499;-65
2023/05/23 03:20:57;;;;;;;;;;;;;;;14.53;100.00;99088.48;109481;1254;60096;-65
2023/05/23 03:23:24;;;;;;;;;;;;;;;14.73;100.00;99086.05;109334;1259;59752;-65
2023/05/23 03:25:52;;;;;;;;;;;;;;;14.96;100.00;99083.33;109572;1252;73670;-65
2023/05/23 03:28:20;;;;;;;;;;;;;;;15.19;100.00;99079.95;109339;1254;66670;-64
2023/05/23 03:30:47;;;;;;;;;;;;;;;15.43;100.00;99081.48;109454;1254;71434;-63
2023/05/23 03:33:15;;;;;;;;;;;;;;;15.66;100.00;99081.86;109574;1254;59359;-63
2023/05/23 03:35:43;;;;;;;;;;;;;;;15.92;100.00;99081.96;109577;1252;58846;-65
2023/05/23 03:38:10;;;;;;;;;;;;;;;16.20;100.00;99082.73;109613;1251;74622;-63
2023/05/23 03:40:38;;;;;;;;;;;;;;;16.47;100.00;99081.84;109592;1251;66657;-65
2023/05/23 03:43:05;;;;;;;;;;;;;;;16.73;100.00;99077.95;109382;1254;72743;-65
2023/05/23 03:45:35;;;;;;;;;;;;;;;17.00;100.00;99075.23;109566;1253;60241;-65
2023/05/23 03:48:05;;;;;;;;;;;;;;;17.28;100.00;99069.91;109464;1251;59735;-66
2023/05/23 03:50:33;;;;;;;;;;;;;;;17.53;97.50;99067.45;109479;1251;77049;-66
2023/05/23 03:53:00;;;;;;;;;;;;;;;17.75;92.56;99064.60;109547;1252;67410;-64
2023/05/23 03:55:30;;;;;;;;;;;;;;;17.90;89.67;99066.10;109405;1251;73118;-64
2023/05/23 03:57:58;;;;;;;;;;;;;;;18.01;87.10;99068.02;109584;1253;58850;-66
2023/05/23 04:00:26;;;;;;;;;;;;;;;18.07;85.88;99069.42;109621;1251;58945;-65
2023/05/23 04:02:54;;;;;;;;;;;;;;;18.17;86.00;99069.15;109577;1253;74902;-65
2023/05/23 04:05:23;;;;;;;;;;;;;;;18.32;85.57;99064.84;109373;1251;67800;-65
2023/05/23 04:07:51;;;;;;;;;;;;;;;18.50;84.30;99065.77;109401;1253;74459;-65
2023/05/23 04:10:18;;;;;;;;;;;;;;;18.68;83.24;99063.07;109553;1254;60065;-64
2023/05/23 04:12:46;;;;;;;;;;;;;;;18.80;82.23;99062.38;109494;1251;58895;-62
2023/05/23 04:15:16;;;;;;;;;;;;;;;18.96;82.85;99059.86;109534;1253;74903;-64
2023/05/23 04:18:08;;;;;;;;;;;;;;;19.25;81.15;99056.00;109489;1254;66730;-65
2023/05/23 04:20:36;;;;;;;;;;;;;;;19.52;79.36;99054.02;109389;1254;72648;-64
2023/05/23 04:23:04;;;;;;;;;;;;;;;19.79;78.42;99052.42;109379;1252;59276;-64
2023/05/23 04:25:34;;;;;;;;;;;;;;;20.07;77.24;99056.00;109454;1253;58986;-64
2023/05/23 04:28:10;;;;;;;;;;;;;;;20.40;76.68;99055.21;109333;1252;72743;-65
2023/05/23 04:30:38;;;;;;;;;;;;;;;20.73;72.96;99052.48;109438;1251;66634;-65
2023/05/23 04:33:06;;;;;;;;;;;;;;;21.02;70.97;99049.33;109483;1251;73639;-66
2023/05/23 04:35:37;;;;;;;;;;;;;;;21.24;68.68;99048.59;109459;1253;58989;-65
2023/05/23 04:38:05;;;;;;;;;;;;;;;21.34;67.05;99049.23;109409;1251;59398;-65
2023/05/23 04:40:33;;;;;;;;;;;;;;;21.44;66.04;99047.95;109350;1251;74678;-67
2023/05/23 04:43:15;;;;;;;;;;;;;;;21.56;65.85;99053.90;109381;1252;66374;-66
2023/05/23 04:45:56;;;;;;;;;;;;;;;21.57;64.81;99055.96;109511;1254;72833;-65
2023/05/23 04:48:37;;;;;;;;;;;;;;;21.55;65.60;99056.38;109547;1253;59030;-66
2023/05/23 04:51:06;;;;;;;;;;;;;;;21.66;66.23;99051.15;109450;1253;58940;-65
2023/05/23 04:53:37;;;;;;;;;;;;;;;21.94;66.61;99050.74;109420;1254;74562;-66
2023/05/23 04:56:07;;;;;;;;;;;;;;;22.27;65.43;99053.45;109428;1252;66443;-66
2023/05/23 04:58:36;;;;;;;;;;;;;;;22.51;61.91;99051.30;109408;1255;72678;-68
2023/05/23 05:01:08;;;;;;;;;;;;;;;22.57;58.25;99057.41;109408;1259;59324;-65
2023/05/23 05:03:36;;;;;;;;;;;;;;;22.51;55.05;99060.77;109484;1251;59788;-67
2023/05/23 05:06:04;;;;;;;;;;;;;;;22.26;53.85;99057.59;109310;1254;73643;-65
2023/05/23 05:08:32;;;;;;;;;;;;;;;21.96;54.17;99060.20;109423;1252;67766;-65
2023/05/23 05:10:59;;;;;;;;;;;;;;;21.67;53.71;99068.83;109380;1253;71159;-67
2023/05/23 05:13:26;;;;;;;;;;;;;;;21.30;53.89;99065.98;109389;1256;60474;-66
2023/05/23 05:15:55;;;;;;;;;;;;;;;20.98;54.78;99065.59;109374;1254;59299;-66
2023/05/23 05:18:27;;;;;;;;;;;;;;;20.82;56.39;99068.27;109370;1254;73414;-68
2023/05/23 05:20:56;;;;;;;;;;;;;;;20.78;58.02;99066.25;109406;1253;67647;-67
2023/05/23 05:23:24;;;;;;;;;;;;;;;20.72;58.48;99066.48;109516;1254;72718;-70
2023/05/23 05:25:51;;;;;;;;;;;;;;;20.67;59.00;99063.00;109476;1254;58984;-70
2023/05/23 05:28:20;;;;;;;;;;;;;;;20.68;59.65;99066.09;109449;1257;59801;-68
2023/05/23 05:30:54;;;;;;;;;;;;;;;20.64;58.76;99071.59;109497;1254;74620;-70
2023/05/23 05:33:27;;;;;;;;;;;;;;;20.63;59.04;99072.87;109451;1253;66394;-70
2023/05/23 05:36:05;;;;;;;;;;;;;;;20.75;60.63;99071.12;109389;1253;72726;-71
2023/05/23 05:38:32;;;;;;;;;;;;;;;21.00;58.70;99068.55;109402;1254;60149;-71
2023/05/23 05:41:00;;;;;;;;;;;;;;;21.29;56.53;99064.73;109489;1253;58893;-69
2023/05/23 05:43:32;;;;;;;;;;;;;;;21.60;56.24;99062.55;109601;1251;73453;-69
2023/05/23 05:46:00;;;;;;;;;;;;;;;21.99;55.59;99060.45;109589;1252;66313;-68
2023/05/23 05:48:27;;;;;;;;;;;;;;;22.41;54.58;99059.75;109399;1254;72487;-68
2023/05/23 05:50:59;;;;;;;;;;;;;;;22.62;53.51;99055.56;109353;1258;60060;-68
2023/05/23 05:53:29;;;;;;;;;;;;;;;22.74;53.06;99052.27;109389;1257;58981;-67
2023/05/23 05:55:57;;;;;;;;;;;;;;;22.92;52.72;99052.30;109566;1252;74741;-65
2023/05/23 05:58:24;;;;;;;;;;;;;;;23.15;52.62;99049.80;109508;1251;66332;-67
2023/05/23 06:01:04;;;;;;;;;;;;;;;23.49;51.46;99048.52;109356;1253;71196;-69
2023/05/23 06:03:32;;;;;;;;;;;;;;;23.80;51.81;99043.71;109320;1253;60602;-65
2023/05/23 06:06:00;;;;;;;;;;;;;;;24.23;51.20;99047.60;109309;1253;59877;-67
2023/05/23 06:08:27;;;;;;;;;;;;;;;24.43;48.26;99046.81;109289;1255;76433;-67
2023/05/23 06:10:55;;;;;;;;;;;;;;;24.43;46.58;99047.48;109531;1254;69991;-69
2023/05/23 06:13:24;;;;;;;;;;;;;;;24.35;46.47;99046.98;109464;1254;71573;-70
2023/05/23 06:15:52;;;;;;;;;;;;;;;24.39;46.05;99047.58;109451;1254;59163;-71
2023/05/23 06:18:20;;;;;;;;;;;;;;;24.60;45.36;99052.71;109206;1254;59722;-69
2023/05/23 06:20:47;;;;;;;;;;;;;;;24.86;44.33;99046.64;109393;1254;74744;-69
2023/05/23 06:23:15;;;;;;;;;;;;;;;25.12;42.21;99045.52;109359;1251;67368;-67
2023/05/23 06:25:44;;;;;;;;;;;;;;;25.25;41.76;99048.94;109350;1253;72659;-71
2023/05/23 06:28:11;;;;;;;;;;;;;;;25.32;41.31;99045.32;109396;1251;59095;-65
2023/05/23 06:30:39;;;;;;;;;;;;;;;25.35;41.96;99041.29;109439;1254;60375;-70
2023/05/23 06:33:07;;;;;;;;;;;;;;;25.40;41.77;99045.30;109347;1254;74618;-69
2023/05/23 06:35:35;;;;;;;;;;;;;;;25.40;40.32;99043.77;109511;1254;67163;-68
2023/05/23 06:38:02;;;;;;;;;;;;;;;25.50;40.61;99040.23;109446;1251;71206;-67
2023/05/23 06:40:29;;;;;;;;;;;;;;;25.79;41.01;99037.94;109343;1254;60107;-69
2023/05/23 06:42:58;;;;;;;;;;;;;;;26.01;39.89;99034.40;109321;1254;60264;-68
2023/05/23 06:45:40;;;;;;;;;;;;;;;25.99;39.42;99031.20;109370;1252;74660;-66
2023/05/23 06:48:10;;;;;;;;;;;;;;;26.10;38.52;99027.38;109572;1256;65714;-68
2023/05/23 06:50:38;;;;;;;;;;;;;;;26.16;37.90;99027.58;109456;1254;71843;-67
2023/05/23 06:53:06;;;;;;;;;;;;;;;26.13;37.47;99027.09;109261;1251;60098;-68
2023/05/23 06:55:34;;;;;;;;;;;;;;;26.15;37.10;99024.93;109285;1254;59072;-67
2023/05/23 06:58:05;;;;;;;;;;;;;;;26.16;34.96;99028.13;109259;1258;74675;-68
2023/05/23 07:00:32;;;;;;;;;;;;;;;26.15;34.81;99029.06;109271;1254;66581;-68
2023/05/23 07:03:40;;;;;;;;;;;;;;;26.13;33.59;99030.70;109250;1254;71446;-69
2023/05/23 07:06:08;;;;;;;;;;;;;;;26.12;33.88;99032.65;109278;1254;59262;-69
2023/05/23 07:08:36;;;;;;;;;;;;;;;26.06;33.32;99035.63;109431;1254;58822;-67
2023/05/23 07:11:03;;;;;;;;;;;;;;;25.93;33.29;99032.77;109406;1252;74618;-67
2023/05/23 07:13:37;;;;;;;;;;;;;;;25.89;33.38;99036.04;109450;1254;67596;-68
2023/05/23 07:16:05;;;;;;;;;;;;;;;25.93;33.25;99034.92;109478;1254;73205;-68
2023/05/23 07:18:34;;;;;;;;;;;;;;;26.09;32.94;99033.65;109418;1253;60065;-67
2023/05/23 07:21:05;;;;;;;;;;;;;;;26.19;32.60;99031.65;109425;1253;59819;-68
2023/05/23 07:23:35;;;;;;;;;;;;;;;26.32;32.22;99030.58;109450;1251;74757;-68
2023/05/23 07:26:03;;;;;;;;;;;;;;;26.46;31.63;99030.21;109479;1253;66309;-68
2023/05/23 07:28:39;;;;;;;;;;;;;;;26.45;30.55;99034.15;109380;1258;71444;-68
2023/05/23 07:31:08;;;;;;;;;;;;;;;26.20;30.60;99025.05;109393;1254;60047;-68
2023/05/23 07:33:36;;;;;;;;;;;;;;;25.90;30.88;99024.66;109424;1251;58938;-67
2023/05/23 07:36:03;;;;;;;;;;;;;;;25.74;32.03;99029.14;109427;1254;74674;-69
2023/05/23 07:38:31;;;;;;;;;;;;;;;25.70;32.10;99022.29;109605;1251;66430;-68
2023/05/23 07:40:58;;;;;;;;;;;;;;;25.78;32.40;99020.95;109447;1251;71450;-68
2023/05/23 07:43:37;;;;;;;;;;;;;;;26.09;30.38;99018.06;109616;1253;58965;-67
2023/05/23 07:46:05;;;;;;;;;;;;;;;26.35;29.16;99014.16;109640;1252;58889;-68
2023/05/23 07:48:32;;;;;;;;;;;;;;;26.56;27.78;99018.45;109399;1251;73357;-70
2023/05/23 07:50:59;;;;;;;;;;;;;;;26.66;26.66;99019.14;109430;1251;68206;-68
2023/05/23 07:53:28;;;;;;;;;;;;;;;26.86;27.30;99015.71;109483;1254;72690;-67
2023/05/23 07:55:55;;;;;;;;;;;;;;;27.25;27.42;99008.78;109438;1251;60090;-67
2023/05/23 07:58:24;;;;;;;;;;;;;;;27.79;26.36;99009.73;109490;1251;59896;-68
2023/05/23 08:00:52;;;;;;;;;;;;;;;28.12;25.45;99008.54;109343;1253;74874;-68
2023/05/23 08:03:38;;;;;;;;;;;;;;;28.26;23.20;99009.81;109623;1251;67636;-68
2023/05/23 08:06:10;;;;;;;;;;;;;;;28.21;23.62;99006.95;109437;1253;72673;-67
2023/05/23 08:08:37;;;;;;;;;;;;;;;28.17;24.35;99004.81;109581;1254;59150;-67
2023/05/23 08:11:05;;;;;;;;;;;;;;;28.38;24.90;99008.64;109469;1251;58906;-67
2023/05/23 08:13:38;;;;;;;;;;;;;;;28.78;24.99;99008.59;109486;1251;75001;-70
2023/05/23 08:16:26;;;;;;;;;;;;;;;29.32;24.49;99006.34;109636;1251;69583;-68
2023/05/23 08:18:54;;;;;;;;;;;;;;;29.73;24.28;99000.67;109579;1251;73115;-73
2023/05/23 08:21:22;;;;;;;;;;;;;;;29.97;24.09;98998.80;109557;1254;59018;-73
2023/05/23 08:23:50;;;;;;;;;;;;;;;30.11;23.57;98997.38;109427;1251;58869;-69
2023/05/23 08:26:17;;;;;;;;;;;;;;;30.26;22.88;98990.34;109446;1251;74589;-70
2023/05/23 08:28:45;;;;;;;;;;;;;;;30.56;22.64;98987.89;109449;1251;67944;-70
2023/05/23 08:31:12;;;;;;;;;;;;;;;31.08;22.51;98991.25;109428;1251;72629;-71
2023/05/23 08:33:40;;;;;;;;;;;;;;;31.40;21.44;98986.83;109409;1254;60182;-66
2023/05/23 08:36:07;;;;;;;;;;;;;;;31.63;21.11;98987.55;109411;1251;59402;-69
2023/05/23 08:38:34;;;;;;;;;;;;;;;31.87;21.21;98989.55;109447;1253;73476;-70
2023/05/23 08:41:15;;;;;;;;;;;;;;;32.09;20.46;98990.86;109488;1251;66312;-70
2023/05/23 08:43:42;;;;;;;;;;;;;;;32.34;20.55;98991.16;109479;1251;74902;-70
2023/05/23 08:46:11;;;;;;;;;;;;;;;32.73;20.27;98988.84;109381;1251;60223;-68
2023/05/23 08:48:38;;;;;;;;;;;;;;;33.20;20.01;98979.46;109429;1251;58883;-70
2023/05/23 08:51:06;;;;;;;;;;;;;;;33.61;19.83;98970.02;109527;1251;75265;-67
2023/05/23 08:53:33;;;;;;;;;;;;;;;33.66;18.98;98981.73;109470;1251;68060;-68
2023/05/23 08:56:04;;;;;;;;;;;;;;;32.92;19.66;98976.90;109306;1252;72524;-68
2023/05/23 08:58:40;;;;;;;;;;;;;;;32.49;19.91;98976.42;109476;1253;60219;-69
2023/05/23 09:01:08;;;;;;;;;;;;;;;32.01;20.22;98977.02;109420;1251;58903;-68
2023/05/23 09:03:37;;;;;;;;;;;;;;;31.76;20.66;98969.89;109476;1251;74656;-67
2023/05/23 09:06:20;;;;;;;;;;;;;;;32.17;20.95;98970.23;109607;1251;68093;-69
2023/05/23 09:08:47;;;;;;;;;;;;;;;32.64;20.31;98972.34;109492;1251;71412;-68
2023/05/23 09:11:16;;;;;;;;;;;;;;;32.67;20.14;98970.04;109424;1251;60248;-69
2023/05/23 09:13:44;;;;;;;;;;;;;;;32.58;20.09;98967.24;109423;1252;59809;-71
2023/05/23 09:16:15;;;;;;;;;;;;;;;32.73;19.88;98968.30;109467;1253;73843;-70
2023/05/23 09:18:46;;;;;;;;;;;;;;;33.18;19.93;98967.73;109368;1253;67940;-68
2023/05/23 09:21:15;;;;;;;;;;;;;;;33.76;19.39;98965.17;109444;1251;71432;-66
2023/05/23 09:23:54;;;;;;;;;;;;;;;33.87;18.93;98968.83;109404;1254;60165;-66
2023/05/23 09:26:21;;;;;;;;;;;;;;;32.98;18.92;98970.77;109350;1251;58869;-70
2023/05/23 09:28:48;;;;;;;;;;;;;;;31.82;19.82;98967.33;109657;1251;74755;-70
2023/05/23 09:31:16;;;;;;;;;;;;;;;30.64;20.56;98971.30;109579;1251;67572;-68
2023/05/23 09:33:47;;;;;;;;;;;;;;;29.50;21.31;98974.79;109594;1253;71390;-69
2023/05/23 09:36:14;;;;;;;;;;;;;;;28.63;22.61;98979.36;109335;1251;58908;-66
2023/05/23 09:38:42;;;;;;;;;;;;;;;27.90;23.19;98977.23;109370;1252;59921;-71
2023/05/23 09:41:13;;;;;;;;;;;;;;;27.58;23.55;98972.31;109414;1254;74646;-70
2023/05/23 09:43:50;;;;;;;;;;;;;;;27.93;23.90;98969.63;109633;1251;66430;-67
2023/05/23 09:46:18;;;;;;;;;;;;;;;28.21;24.15;98972.96;109315;1253;71383;-68
2023/05/23 09:48:46;;;;;;;;;;;;;;;27.93;23.50;98969.38;109352;1254;59269;-71
2023/05/23 09:51:14;;;;;;;;;;;;;;;27.41;24.09;98972.30;109567;1252;59850;-67
2023/05/23 09:53:41;;;;;;;;;;;;;;;27.03;24.57;98971.49;109592;1253;74655;-68
2023/05/23 09:56:10;;;;;;;;;;;;;;;27.29;24.44;98964.27;109489;1251;66326;-70
2023/05/23 09:58:37;;;;;;;;;;;;;;;27.42;25.02;98963.27;109564;1251;71634;-73
2023/05/23 10:01:06;;;;;;;;;;;;;;;27.56;24.79;98963.42;109599;1253;58904;-69
2023/05/23 10:03:34;;;;;;;;;;;;;;;27.68;24.32;98958.84;109436;1251;58954;-71
2023/05/23 10:06:10;;;;;;;;;;;;;;;27.74;24.23;98956.30;109643;1251;73419;-71
2023/05/23 10:08:38;;;;;;;;;;;;;;;27.95;24.02;98953.04;109422;1251;67667;-69
2023/05/23 10:11:17;;;;;;;;;;;;;;;29.00;23.73;98948.18;109581;1251;72631;-71
2023/05/23 10:13:45;;;;;;;;;;;;;;;30.26;22.04;98945.36;109500;1251;60219;-69
2023/05/23 10:16:19;;;;;;;;;;;;;;;31.27;20.96;98941.48;109578;1253;59868;-73
2023/05/23 10:18:47;;;;;;;;;;;;;;;32.47;20.19;98943.39;109538;1253;74729;-72
2023/05/23 10:21:16;;;;;;;;;;;;;;;33.64;19.41;98940.41;109558;1253;66326;-71
2023/05/23 10:23:45;;;;;;;;;;;;;;;34.62;19.07;98935.05;109425;1251;72557;-70
2023/05/23 10:26:12;;;;;;;;;;;;;;;35.49;18.15;98931.95;109524;1253;58907;-71
2023/05/23 10:28:39;;;;;;;;;;;;;;;35.72;17.41;98936.16;109579;1251;59955;-72
2023/05/23 10:31:07;;;;;;;;;;;;;;;35.20;17.12;98934.54;109433;1252;74627;-70
2023/05/23 10:33:35;;;;;;;;;;;;;;;34.34;17.88;98931.92;109505;1251;66441;-70
2023/05/23 10:36:23;;;;;;;;;;;;;;;33.70;18.42;98932.05;109408;1251;72718;-71
2023/05/23 10:38:52;;;;;;;;;;;;;;;32.83;19.01;98928.45;109603;1252;58861;-71
2023/05/23 10:41:37;;;;;;;;;;;;;;;31.89;20.24;98926.88;109626;1251;59838;-72
2023/05/23 10:44:13;;;;;;;;;;;;;;;30.85;20.68;98932.39;109557;1251;73453;-72
2023/05/23 10:46:57;;;;;;;;;;;;;;;29.91;21.26;98929.98;109453;1251;68282;-72
2023/05/23 10:49:40;;;;;;;;;;;;;;;28.98;21.78;98930.49;109464;1251;72891;-72
2023/05/23 10:52:08;;;;;;;;;;;;;;;28.34;22.55;98931.57;109512;1251;59221;-73
2023/05/23 10:54:36;;;;;;;;;;;;;;;27.97;23.10;98929.24;109628;1251;59815;-75
2023/05/23 10:57:03;;;;;;;;;;;;;;;27.77;23.30;98929.58;109583;1252;73801;-71
2023/05/23 10:59:31;;;;;;;;;;;;;;;27.46;23.52;98924.00;109487;1253;67717;-73
2023/05/23 11:01:59;;;;;;;;;;;;;;;27.23;24.32;98921.70;109428;1254;72700;-70
2023/05/23 11:04:27;;;;;;;;;;;;;;;27.20;24.33;98918.34;109449;1252;62271;-70
2023/05/23 11:06:54;;;;;;;;;;;;;;;27.27;24.84;98922.30;109450;1253;59813;-71
2023/05/23 11:09:22;;;;;;;;;;;;;;;27.27;24.75;98921.48;109386;1251;74654;-70
2023/05/23 11:12:05;;;;;;;;;;;;;;;27.29;24.51;98922.23;109449;1253;66946;-70
2023/05/23 11:14:33;;;;;;;;;;;;;;;27.30;24.22;98920.12;109459;1253;72435;-67
2023/05/23 11:17:00;;;;;;;;;;;;;;;27.26;23.83;98919.98;109404;1254;60040;-69
2023/05/23 11:19:28;;;;;;;;;;;;;;;27.24;24.34;98915.89;109400;1252;59267;-70
2023/05/23 11:22:02;;;;;;;;;;;;;;;27.29;24.59;98911.25;109347;1251;74594;-70
2023/05/23 11:24:45;;;;;;;;;;;;;;;27.32;24.59;98911.53;109508;1251;67664;-70
2023/05/23 11:27:12;;;;;;;;;;;;;;;27.31;24.11;98909.91;109441;1251;71990;-70
2023/05/23 11:29:40;;;;;;;;;;;;;;;27.14;23.88;98910.51;109439;1253;60064;-69
2023/05/23 11:32:13;;;;;;;;;;;;;;;26.88;24.35;98907.63;109466;1253;59738;-71
2023/05/23 11:34:44;;;;;;;;;;;;;;;26.56;24.33;98910.90;109550;1251;74660;-69
2023/05/23 11:37:11;;;;;;;;;;;;;;;26.27;24.62;98908.70;109472;1251;66756;-69
2023/05/23 11:39:39;;;;;;;;;;;;;;;26.05;25.02;98912.77;109349;1251;72665;-70
2023/05/23 11:42:06;;;;;;;;;;;;;;;25.89;26.05;98907.92;109426;1253;58944;-69
2023/05/23 11:44:34;;;;;;;;;;;;;;;25.72;26.59;98907.00;109632;1251;59798;-71
2023/05/23 11:47:01;;;;;;;;;;;;;;;25.60;26.91;98904.52;109499;1253;74683;-73
2023/05/23 11:49:29;;;;;;;;;;;;;;;25.51;26.60;98903.15;109433;1252;66748;-69
2023/05/23 11:52:00;;;;;;;;;;;;;;;25.38;25.99;98903.02;109508;1253;72663;-70
2023/05/23 11:54:27;;;;;;;;;;;;;;;25.16;25.76;98902.14;109525;1253;58945;-71
2023/05/23 11:56:55;;;;;;;;;;;;;;;24.94;25.88;98902.01;109604;1251;59250;-74
2023/05/23 11:59:23;;;;;;;;;;;;;;;24.81;26.71;98899.48;109508;1251;77104;-72
2023/05/23 12:01:50;;;;;;;;;;;;;;;24.87;27.45;98895.94;109577;1251;67555;-72
2023/05/23 12:04:17;;;;;;;;;;;;;;;25.03;27.79;98888.69;109407;1251;72705;-70
2023/05/23 12:06:48;;;;;;;;;;;;;;;25.22;27.88;98891.45;109402;1253;58955;-71
2023/05/23 12:09:15;;;;;;;;;;;;;;;25.35;26.67;98891.01;109426;1254;60324;-70
2023/05/23 12:11:43;;;;;;;;;;;;;;;25.37;26.75;98892.52;109499;1251;75126;-70
2023/05/23 12:14:13;;;;;;;;;;;;;;;25.37;26.35;98892.64;109449;1253;66346;-72
2023/05/23 12:16:43;;;;;;;;;;;;;;;25.32;25.92;98889.71;109447;1252;72961;-71
2023/05/23 12:19:11;;;;;;;;;;;;;;;25.27;26.15;98887.19;109542;1252;60196;-69
2023/05/23 12:21:39;;;;;;;;;;;;;;;25.20;26.09;98889.94;109568;1251;58946;-72
2023/05/23 12:24:13;;;;;;;;;;;;;;;25.09;26.18;98884.98;109517;1251;73497;-72
2023/05/23 12:26:53;;;;;;;;;;;;;;;24.99;26.14;98881.48;109593;1251;67561;-71
2023/05/23 12:29:21;;;;;;;;;;;;;;;24.97;26.52;98877.63;109461;1251;72332;-71
2023/05/23 12:31:50;;;;;;;;;;;;;;;24.99;26.61;98872.94;109445;1252;58946;-71
2023/05/23 12:34:18;;;;;;;;;;;;;;;24.91;26.48;98876.98;109534;1252;59708;-72
2023/05/23 12:36:47;;;;;;;;;;;;;;;24.79;25.92;98878.00;109481;1254;74683;-70
2023/05/23 12:39:26;;;;;;;;;;;;;;;24.55;25.81;98871.84;109567;1253;66385;-72
2023/05/23 12:41:55;;;;;;;;;;;;;;;24.28;26.21;98871.45;109554;1251;71649;-69
2023/05/23 12:44:22;;;;;;;;;;;;;;;24.05;26.31;98870.73;109458;1253;58889;-70